createdAt,value
2018-09-11T00:00:16.847Z,31
2018-09-11T00:01:22.542Z,31
2018-09-11T00:02:27.156Z,31
2018-09-11T00:03:33.073Z,31
2018-09-11T00:04:37.656Z,31
2018-09-11T00:05:42.569Z,31
2018-09-11T00:06:48.005Z,31
2018-09-11T00:07:53.215Z,31
2018-09-11T00:08:58.150Z,31
2018-09-11T00:10:03.380Z,31
2018-09-11T00:11:08.091Z,31
2018-09-11T00:12:12.960Z,31
2018-09-11T00:13:18.186Z,31
2018-09-11T00:14:22.764Z,31
2018-09-11T00:15:28.096Z,31
2018-09-11T00:16:33.027Z,31
2018-09-11T00:17:38.546Z,31
2018-09-11T00:18:44.446Z,31
2018-09-11T00:19:49.090Z,31
2018-09-11T00:20:53.965Z,31
2018-09-11T00:21:59.452Z,31
2018-09-11T00:23:04.382Z,31
2018-09-11T00:24:09.825Z,31
2018-09-11T00:25:15.236Z,31
2018-09-11T00:26:20.419Z,31
2018-09-11T00:27:26.104Z,31
2018-09-11T00:28:31.540Z,31
2018-09-11T00:29:36.710Z,31
2018-09-11T00:30:41.836Z,31
2018-09-11T00:31:46.980Z,31
2018-09-11T00:32:52.133Z,31
2018-09-11T00:33:57.730Z,31
2018-09-11T00:35:02.036Z,31
2018-09-11T00:36:06.938Z,31
2018-09-11T00:37:12.919Z,31
2018-09-11T00:38:17.825Z,31
2018-09-11T00:39:23.029Z,31
2018-09-11T00:40:43.702Z,31
2018-09-11T00:41:48.951Z,31
2018-09-11T00:42:54.568Z,31
2018-09-11T00:43:59.471Z,31
2018-09-11T00:45:04.905Z,31
2018-09-11T00:46:10.718Z,31
2018-09-11T00:47:15.858Z,31
2018-09-11T00:48:21.345Z,31
2018-09-11T00:49:26.451Z,31
2018-09-11T00:50:31.617Z,31
2018-09-11T00:51:37.060Z,31
2018-09-11T00:52:42.580Z,31
2018-09-11T00:53:48.056Z,31
2018-09-11T00:54:53.895Z,31
2018-09-11T00:55:59.319Z,31
2018-09-11T01:02:01.600Z,31
2018-09-11T01:03:05.931Z,31
2018-09-11T01:04:11.735Z,31
2018-09-11T01:05:17.207Z,31
2018-09-11T01:06:22.640Z,31
2018-09-11T01:07:27.966Z,31
2018-09-11T01:08:33.435Z,31
2018-09-11T01:09:38.756Z,31
2018-09-11T01:10:44.006Z,31
2018-09-11T01:11:49.437Z,31
2018-09-11T01:12:54.837Z,31
2018-09-11T01:14:00.268Z,31
2018-09-11T01:15:05.247Z,31
2018-09-11T01:16:11.155Z,31
2018-09-11T01:17:16.612Z,31
2018-09-11T01:18:21.765Z,31
2018-09-11T01:19:27.675Z,31
2018-09-11T01:20:32.828Z,31
2018-09-11T01:21:38.350Z,31
2018-09-11T01:22:43.848Z,31
2018-09-11T01:23:48.993Z,31
2018-09-11T01:24:54.501Z,31
2018-09-11T01:25:59.932Z,31
2018-09-11T01:27:04.820Z,31
2018-09-11T01:28:10.742Z,31
2018-09-11T01:29:15.628Z,31
2018-09-11T01:30:20.501Z,31
2018-09-11T01:31:25.959Z,31
2018-09-11T01:32:31.403Z,31
2018-09-11T01:33:37.113Z,31
2018-09-11T01:34:42.596Z,31
2018-09-11T01:35:48.031Z,31
2018-09-11T01:36:53.578Z,31
2018-09-11T01:37:59.098Z,31
2018-09-11T01:39:04.589Z,31
2018-09-11T01:40:09.988Z,31
2018-09-11T01:41:15.222Z,31
2018-09-11T01:42:20.446Z,31
2018-09-11T01:43:26.144Z,31
2018-09-11T01:44:31.641Z,31
2018-09-11T01:45:37.294Z,31
2018-09-11T01:46:42.722Z,31
2018-09-11T01:47:47.875Z,31
2018-09-11T01:48:52.850Z,31
2018-09-11T01:49:58.027Z,31
2018-09-11T01:51:03.456Z,31
2018-09-11T01:52:09.182Z,31
2018-09-11T01:53:14.323Z,31
2018-09-11T01:54:19.781Z,31
2018-09-11T01:55:25.286Z,31
2018-09-11T01:56:30.796Z,31
2018-09-11T01:57:36.862Z,31
2018-09-11T01:58:41.739Z,31
2018-09-11T01:59:46.665Z,31
2018-09-11T02:00:52.328Z,31
2018-09-11T02:01:57.862Z,31
2018-09-11T02:03:03.088Z,31
2018-09-11T02:04:08.327Z,31
2018-09-11T02:05:13.326Z,31
2018-09-11T02:06:18.839Z,31
2018-09-11T02:07:24.248Z,31
2018-09-11T02:08:29.740Z,31
2018-09-11T02:09:35.315Z,31
2018-09-11T02:10:40.836Z,31
2018-09-11T02:11:45.708Z,31
2018-09-11T02:12:51.589Z,31
2018-09-11T02:13:57.065Z,31
2018-09-11T02:15:01.979Z,31
2018-09-11T02:16:07.135Z,31
2018-09-11T02:17:12.653Z,31
2018-09-11T02:18:18.238Z,31
2018-09-11T02:19:22.816Z,31
2018-09-11T02:20:27.768Z,31
2018-09-11T02:21:33.281Z,31
2018-09-11T02:22:38.147Z,31
2018-09-11T02:23:43.352Z,31
2018-09-11T02:24:48.824Z,31
2018-09-11T02:25:54.258Z,31
2018-09-11T02:26:59.417Z,31
2018-09-11T02:28:05.256Z,31
2018-09-11T02:29:10.416Z,31
2018-09-11T02:30:15.310Z,31
2018-09-11T02:31:20.988Z,31
2018-09-11T02:32:26.156Z,31
2018-09-11T02:33:31.870Z,31
2018-09-11T02:34:37.394Z,31
2018-09-11T02:35:42.359Z,31
2018-09-11T02:36:48.518Z,31
2018-09-11T02:37:53.964Z,31
2018-09-11T02:38:59.447Z,31
2018-09-11T02:40:05.057Z,31
2018-09-11T02:41:09.755Z,31
2018-09-11T02:42:14.901Z,31
2018-09-11T02:43:20.142Z,31
2018-09-11T02:44:25.002Z,31
2018-09-11T02:45:30.576Z,31
2018-09-11T02:46:35.751Z,31
2018-09-11T02:47:41.182Z,31
2018-09-11T02:48:46.733Z,31
2018-09-11T02:49:51.641Z,31
2018-09-11T02:50:56.849Z,31
2018-09-11T02:52:02.126Z,31
2018-09-11T02:53:07.002Z,31
2018-09-11T02:54:12.232Z,31
2018-09-11T02:55:17.623Z,31
2018-09-11T02:56:23.132Z,31
2018-09-11T02:57:28.730Z,31
2018-09-11T02:58:34.223Z,31
2018-09-11T02:59:39.392Z,31
2018-09-11T03:00:45.232Z,31
2018-09-11T03:01:50.105Z,31
2018-09-11T03:02:55.309Z,31
2018-09-11T03:04:00.863Z,31
2018-09-11T03:05:05.778Z,31
2018-09-11T03:06:10.931Z,31
2018-09-11T03:07:16.433Z,31
2018-09-11T03:08:21.630Z,31
2018-09-11T03:09:27.186Z,31
2018-09-11T03:10:32.385Z,31
2018-09-11T03:11:37.599Z,31
2018-09-11T03:12:43.098Z,31
2018-09-11T03:13:48.619Z,31
2018-09-11T03:14:54.058Z,31
2018-09-11T03:15:59.856Z,31
2018-09-11T03:17:04.827Z,31
2018-09-11T03:18:10.268Z,31
2018-09-11T03:19:15.421Z,31
2018-09-11T03:20:20.694Z,31
2018-09-11T03:22:45.766Z,31
2018-09-11T03:23:51.191Z,31
2018-09-11T03:24:56.481Z,31
2018-09-11T03:26:01.995Z,31
2018-09-11T03:27:07.151Z,31
2018-09-11T03:28:12.733Z,31
2018-09-11T03:29:17.599Z,31
2018-09-11T03:30:22.834Z,31
2018-09-11T03:31:28.288Z,31
2018-09-11T03:32:33.763Z,31
2018-09-11T03:33:38.980Z,31
2018-09-11T03:34:44.483Z,31
2018-09-11T03:35:49.944Z,31
2018-09-11T03:36:55.061Z,31
2018-09-11T03:38:00.634Z,31
2018-09-11T03:39:05.557Z,31
2018-09-11T03:40:11.260Z,31
2018-09-11T03:41:16.439Z,31
2018-09-11T03:42:21.630Z,31
2018-09-11T03:43:27.731Z,31
2018-09-11T03:44:32.408Z,31
2018-09-11T03:45:37.984Z,31
2018-09-11T03:46:43.503Z,31
2018-09-11T03:47:48.711Z,31
2018-09-11T03:48:54.588Z,31
2018-09-11T03:49:59.745Z,31
2018-09-11T03:51:04.900Z,31
2018-09-11T03:52:10.682Z,32
2018-09-11T03:53:16.134Z,31
2018-09-11T03:54:21.576Z,31
2018-09-11T03:55:41.060Z,31
2018-09-11T03:56:46.228Z,31
2018-09-11T03:57:51.668Z,31
2018-09-11T03:58:56.890Z,31
2018-09-11T04:00:02.081Z,31
2018-09-11T04:01:07.206Z,32
2018-09-11T04:02:12.405Z,31
2018-09-11T04:03:17.557Z,30
2018-09-11T04:04:23.236Z,30
2018-09-11T04:05:28.534Z,30
2018-09-11T04:06:34.499Z,30
2018-09-11T04:07:39.653Z,30
2018-09-11T04:08:45.084Z,30
2018-09-11T04:09:50.062Z,30
2018-09-11T04:10:55.218Z,30
2018-09-11T04:11:59.812Z,30
2018-09-11T04:13:05.235Z,30
2018-09-11T04:14:10.684Z,31
2018-09-11T04:15:15.340Z,31
2018-09-11T04:16:20.885Z,31
2018-09-11T04:17:25.470Z,31
2018-09-11T04:18:31.559Z,31
2018-09-11T04:19:36.700Z,31
2018-09-11T04:20:41.896Z,31
2018-09-11T04:21:47.373Z,31
2018-09-11T04:22:52.583Z,31
2018-09-11T04:23:57.757Z,31
2018-09-11T04:25:03.279Z,31
2018-09-11T04:26:08.146Z,31
2018-09-11T04:27:13.615Z,31
2018-09-11T04:28:19.012Z,31
2018-09-11T04:29:23.884Z,31
2018-09-11T04:30:29.476Z,31
2018-09-11T04:31:34.966Z,31
2018-09-11T04:32:39.839Z,32
2018-09-11T04:33:45.268Z,31
2018-09-11T04:34:50.419Z,32
2018-09-11T04:35:55.296Z,32
2018-09-11T04:37:00.395Z,32
2018-09-11T04:38:05.575Z,32
2018-09-11T04:39:10.732Z,32
2018-09-11T04:40:15.953Z,32
2018-09-11T04:41:20.874Z,32
2018-09-11T04:42:26.962Z,32
2018-09-11T04:43:31.930Z,32
2018-09-11T04:44:37.385Z,32
2018-09-11T04:45:43.166Z,32
2018-09-11T04:46:48.624Z,32
2018-09-11T04:47:54.088Z,32
2018-09-11T04:48:59.566Z,32
2018-09-11T04:50:05.050Z,32
2018-09-11T04:51:09.632Z,32
2018-09-11T04:52:14.875Z,32
2018-09-11T04:53:19.842Z,32
2018-09-11T04:54:24.984Z,32
2018-09-11T04:55:45.103Z,32
2018-09-11T04:56:50.536Z,32
2018-09-11T04:57:55.825Z,32
2018-09-11T04:59:01.049Z,32
2018-09-11T05:00:05.629Z,32
2018-09-11T05:01:11.348Z,32
2018-09-11T05:02:16.566Z,32
2018-09-11T05:03:21.726Z,32
2018-09-11T05:04:27.143Z,32
2018-09-11T05:05:32.633Z,32
2018-09-11T05:06:38.303Z,32
2018-09-11T05:07:43.466Z,32
2018-09-11T05:08:48.934Z,32
2018-09-11T05:09:54.455Z,32
2018-09-11T05:10:59.959Z,32
2018-09-11T05:12:05.250Z,32
2018-09-11T05:13:10.548Z,32
2018-09-11T05:14:15.988Z,32
2018-09-11T05:15:21.519Z,32
2018-09-11T05:16:41.388Z,32
2018-09-11T05:17:46.840Z,32
2018-09-11T05:18:52.532Z,32
2018-09-11T05:19:57.979Z,32
2018-09-11T05:21:02.890Z,32
2018-09-11T05:22:08.016Z,32
2018-09-11T05:23:13.659Z,32
2018-09-11T05:24:18.539Z,32
2018-09-11T05:25:23.795Z,32
2018-09-11T05:26:29.022Z,32
2018-09-11T05:27:34.966Z,33
2018-09-11T05:28:40.458Z,32
2018-09-11T05:29:45.936Z,33
2018-09-11T05:30:51.127Z,33
2018-09-11T05:31:56.265Z,33
2018-09-11T05:33:01.426Z,32
2018-09-11T05:34:06.832Z,33
2018-09-11T05:35:12.268Z,33
2018-09-11T05:36:17.723Z,33
2018-09-11T05:37:23.454Z,33
2018-09-11T05:38:28.972Z,33
2018-09-11T05:39:34.447Z,33
2018-09-11T05:40:39.938Z,33
2018-09-11T05:41:45.365Z,33
2018-09-11T05:42:51.053Z,33
2018-09-11T05:43:56.529Z,33
2018-09-11T05:45:01.672Z,33
2018-09-11T05:46:07.222Z,33
2018-09-11T05:47:12.784Z,33
2018-09-11T05:48:18.677Z,33
2018-09-11T05:49:24.202Z,33
2018-09-11T05:50:28.896Z,33
2018-09-11T05:51:34.416Z,33
2018-09-11T05:52:39.571Z,33
2018-09-11T05:53:45.019Z,33
2018-09-11T05:54:50.718Z,33
2018-09-11T05:55:55.930Z,33
2018-09-11T05:57:01.155Z,33
2018-09-11T05:58:06.306Z,33
2018-09-11T05:59:11.452Z,33
2018-09-11T06:00:16.945Z,33
2018-09-11T06:01:22.763Z,33
2018-09-11T06:02:27.910Z,33
2018-09-11T06:03:33.083Z,33
2018-09-11T06:04:38.343Z,33
2018-09-11T06:05:43.884Z,33
2018-09-11T06:06:50.049Z,33
2018-09-11T06:07:54.951Z,33
2018-09-11T06:09:00.178Z,33
2018-09-11T06:10:05.348Z,33
2018-09-11T06:11:10.840Z,33
2018-09-11T06:12:15.990Z,33
2018-09-11T06:13:21.429Z,33
2018-09-11T06:14:26.912Z,33
2018-09-11T06:15:32.624Z,33
2018-09-11T06:16:37.837Z,33
2018-09-11T06:17:43.324Z,33
2018-09-11T06:18:48.891Z,33
2018-09-11T06:19:54.331Z,33
2018-09-11T06:20:58.690Z,33
2018-09-11T06:22:04.203Z,33
2018-09-11T06:23:09.143Z,33
2018-09-11T06:24:14.690Z,33
2018-09-11T06:25:20.187Z,33
2018-09-11T06:26:25.366Z,40
2018-09-11T06:27:30.714Z,41
2018-09-11T06:28:35.868Z,41
2018-09-11T06:29:41.478Z,41
2018-09-11T06:30:47.352Z,40
2018-09-11T06:31:52.845Z,40
2018-09-11T06:32:58.159Z,39
2018-09-11T06:34:03.607Z,39
2018-09-11T06:35:09.039Z,39
2018-09-11T06:36:14.554Z,38
2018-09-11T06:37:20.374Z,38
2018-09-11T06:38:25.247Z,37
2018-09-11T06:39:31.076Z,37
2018-09-11T06:40:36.227Z,37
2018-09-11T06:41:41.448Z,37
2018-09-11T06:42:46.939Z,36
2018-09-11T06:43:51.859Z,36
2018-09-11T06:44:57.357Z,36
2018-09-11T06:46:02.462Z,36
2018-09-11T06:47:07.591Z,36
2018-09-11T06:48:13.077Z,36
2018-09-11T06:49:18.559Z,36
2018-09-11T06:50:23.823Z,36
2018-09-11T06:51:28.424Z,36
2018-09-11T06:52:33.676Z,36
2018-09-11T06:53:38.588Z,36
2018-09-11T06:54:44.196Z,36
2018-09-11T06:55:49.368Z,36
2018-09-11T06:56:54.900Z,36
2018-09-11T06:58:00.339Z,36
2018-09-11T06:59:05.603Z,36
2018-09-11T07:00:11.466Z,36
2018-09-11T07:01:16.876Z,35
2018-09-11T07:02:21.738Z,35
2018-09-11T07:03:27.606Z,35
2018-09-11T07:04:33.093Z,35
2018-09-11T07:05:38.047Z,35
2018-09-11T07:06:43.765Z,35
2018-09-11T07:07:48.912Z,35
2018-09-11T07:08:54.340Z,35
2018-09-11T07:10:00.023Z,35
2018-09-11T07:11:05.548Z,35
2018-09-11T07:12:10.695Z,35
2018-09-11T07:13:16.715Z,35
2018-09-11T07:14:22.184Z,35
2018-09-11T07:15:28.231Z,35
2018-09-11T07:16:33.377Z,35
2018-09-11T07:17:38.729Z,35
2018-09-11T07:18:44.730Z,35
2018-09-11T07:19:50.531Z,35
2018-09-11T07:20:57.061Z,35
2018-09-11T07:22:04.830Z,35
2018-09-11T07:23:10.033Z,34
2018-09-11T07:24:15.625Z,34
2018-09-11T07:25:21.120Z,34
2018-09-11T07:26:26.313Z,34
2018-09-11T07:27:31.712Z,34
2018-09-11T07:28:36.643Z,34
2018-09-11T07:29:41.879Z,34
2018-09-11T07:30:47.321Z,34
2018-09-11T07:31:52.462Z,34
2018-09-11T07:32:57.615Z,34
2018-09-11T07:34:02.525Z,34
2018-09-11T07:35:07.669Z,34
2018-09-11T07:36:13.197Z,34
2018-09-11T07:37:18.855Z,34
2018-09-11T07:38:23.503Z,34
2018-09-11T07:39:29.184Z,34
2018-09-11T07:40:34.362Z,34
2018-09-11T07:41:39.513Z,34
2018-09-11T07:42:45.314Z,34
2018-09-11T07:43:50.188Z,34
2018-09-11T07:44:55.665Z,34
2018-09-11T07:46:01.490Z,34
2018-09-11T07:47:06.749Z,34
2018-09-11T07:48:11.916Z,34
2018-09-11T07:49:17.849Z,34
2018-09-11T07:50:23.335Z,34
2018-09-11T07:51:29.316Z,34
2018-09-11T07:52:34.681Z,34
2018-09-11T07:53:40.474Z,34
2018-09-11T07:54:45.592Z,34
2018-09-11T07:55:50.796Z,34
2018-09-11T07:56:56.228Z,34
2018-09-11T07:58:01.671Z,34
2018-09-11T07:59:07.371Z,34
2018-09-11T08:00:12.528Z,34
2018-09-11T08:01:18.215Z,34
2018-09-11T08:02:23.366Z,34
2018-09-11T08:03:29.004Z,34
2018-09-11T08:04:34.533Z,34
2018-09-11T08:05:39.167Z,34
2018-09-11T08:06:45.043Z,34
2018-09-11T08:07:50.197Z,34
2018-09-11T08:08:55.390Z,34
2018-09-11T08:10:01.387Z,34
2018-09-11T08:11:06.226Z,34
2018-09-11T08:12:11.715Z,34
2018-09-11T08:13:17.808Z,34
2018-09-11T08:14:22.951Z,34
2018-09-11T08:15:28.397Z,34
2018-09-11T08:16:33.584Z,34
2018-09-11T08:17:39.027Z,34
2018-09-11T08:18:44.428Z,34
2018-09-11T08:19:49.983Z,34
2018-09-11T08:20:54.889Z,34
2018-09-11T08:22:00.355Z,34
2018-09-11T08:23:05.557Z,34
2018-09-11T08:24:11.079Z,34
2018-09-11T08:25:16.196Z,34
2018-09-11T08:26:20.572Z,34
2018-09-11T08:27:41.495Z,34
2018-09-11T08:28:46.924Z,34
2018-09-11T08:29:52.382Z,34
2018-09-11T08:30:57.340Z,34
2018-09-11T08:32:01.923Z,34
2018-09-11T08:33:07.099Z,34
2018-09-11T08:34:12.278Z,34
2018-09-11T08:35:17.206Z,34
2018-09-11T08:36:22.445Z,34
2018-09-11T08:37:28.261Z,34
2018-09-11T08:38:32.301Z,34
2018-09-11T08:39:38.550Z,34
2018-09-11T08:40:43.997Z,34
2018-09-11T08:41:49.202Z,34
2018-09-11T08:42:54.347Z,34
2018-09-11T08:44:00.041Z,34
2018-09-11T08:45:04.906Z,34
2018-09-11T08:46:10.455Z,34
2018-09-11T08:47:15.708Z,34
2018-09-11T08:48:20.585Z,34
2018-09-11T08:49:25.793Z,34
2018-09-11T08:50:30.950Z,34
2018-09-11T08:51:35.830Z,34
2018-09-11T08:52:41.155Z,34
2018-09-11T08:53:46.618Z,34
2018-09-11T08:54:52.386Z,34
2018-09-11T08:55:57.538Z,34
2018-09-11T08:57:03.361Z,34
2018-09-11T08:58:08.607Z,34
2018-09-11T08:59:13.485Z,34
2018-09-11T09:00:18.382Z,34
2018-09-11T09:01:23.778Z,34
2018-09-11T09:02:28.644Z,34
2018-09-11T09:03:34.655Z,34
2018-09-11T09:04:39.523Z,34
2018-09-11T09:05:44.448Z,34
2018-09-11T09:06:51.181Z,34
2018-09-11T09:07:56.597Z,34
2018-09-11T09:09:01.483Z,34
2018-09-11T09:10:07.022Z,34
2018-09-11T09:11:12.173Z,34
2018-09-11T09:12:17.342Z,34
2018-09-11T09:13:22.626Z,34
2018-09-11T09:14:27.213Z,34
2018-09-11T09:15:32.521Z,34
2018-09-11T09:16:38.090Z,34
2018-09-11T09:17:43.234Z,34
2018-09-11T09:18:48.936Z,34
2018-09-11T09:19:54.104Z,34
2018-09-11T09:20:59.275Z,34
2018-09-11T09:22:04.629Z,34
2018-09-11T09:23:10.275Z,34
2018-09-11T09:24:15.222Z,34
2018-09-11T09:25:21.084Z,34
2018-09-11T09:26:26.543Z,34
2018-09-11T09:27:32.462Z,34
2018-09-11T09:28:38.289Z,34
2018-09-11T09:29:43.635Z,34
2018-09-11T09:30:49.071Z,34
2018-09-11T09:31:54.266Z,34
2018-09-11T09:32:59.159Z,34
2018-09-11T09:34:04.896Z,34
2018-09-11T09:35:09.481Z,34
2018-09-11T09:36:14.551Z,34
2018-09-11T09:37:20.198Z,34
2018-09-11T09:38:25.346Z,34
2018-09-11T09:39:31.173Z,34
2018-09-11T09:40:36.656Z,34
2018-09-11T09:41:41.808Z,34
2018-09-11T09:42:47.487Z,34
2018-09-11T09:43:53.027Z,34
2018-09-11T09:44:58.175Z,35
2018-09-11T09:46:03.948Z,34
2018-09-11T09:47:09.206Z,34
2018-09-11T09:48:14.365Z,34
2018-09-11T09:49:20.553Z,34
2018-09-11T09:50:25.802Z,34
2018-09-11T09:51:31.887Z,34
2018-09-11T09:52:36.755Z,34
2018-09-11T09:53:42.260Z,34
2018-09-11T09:54:47.945Z,34
2018-09-11T09:55:53.705Z,34
2018-09-11T09:56:59.166Z,34
2018-09-11T09:58:04.867Z,34
2018-09-11T09:59:10.315Z,34
2018-09-11T10:00:15.532Z,34
2018-09-11T10:01:21.181Z,34
2018-09-11T10:02:26.055Z,34
2018-09-11T10:03:31.253Z,34
2018-09-11T10:04:36.218Z,34
2018-09-11T10:05:41.145Z,34
2018-09-11T10:06:46.924Z,34
2018-09-11T10:07:52.150Z,34
2018-09-11T10:08:57.182Z,34
2018-09-11T10:10:02.625Z,34
2018-09-11T10:11:07.251Z,34
2018-09-11T10:12:12.399Z,34
2018-09-11T10:13:17.824Z,34
2018-09-11T10:14:23.252Z,34
2018-09-11T10:15:28.117Z,34
2018-09-11T10:16:33.067Z,34
2018-09-11T10:17:38.634Z,34
2018-09-11T10:18:44.806Z,34
2018-09-11T10:19:49.944Z,34
2018-09-11T10:20:55.095Z,34
2018-09-11T10:22:00.508Z,34
2018-09-11T10:23:06.202Z,34
2018-09-11T10:24:11.631Z,34
2018-09-11T10:25:16.853Z,34
2018-09-11T10:26:22.008Z,34
2018-09-11T10:27:27.476Z,34
2018-09-11T10:28:32.757Z,34
2018-09-11T10:29:37.983Z,34
2018-09-11T10:30:43.807Z,34
2018-09-11T10:31:49.323Z,34
2018-09-11T10:32:54.960Z,34
2018-09-11T10:34:00.434Z,34
2018-09-11T10:35:05.317Z,34
2018-09-11T10:36:10.226Z,34
2018-09-11T10:37:15.435Z,34
2018-09-11T10:38:20.026Z,34
2018-09-11T10:39:26.569Z,34
2018-09-11T10:40:31.525Z,34
2018-09-11T10:41:36.961Z,34
2018-09-11T10:42:42.451Z,34
2018-09-11T10:43:47.653Z,34
2018-09-11T10:44:53.382Z,34
2018-09-11T10:45:58.990Z,34
2018-09-11T10:47:03.854Z,34
2018-09-11T10:48:09.009Z,34
2018-09-11T10:49:13.978Z,34
2018-09-11T10:50:19.125Z,34
2018-09-11T10:51:24.371Z,34
2018-09-11T10:52:29.610Z,34
2018-09-11T10:53:34.485Z,34
2018-09-11T10:54:40.190Z,34
2018-09-11T10:55:45.653Z,34
2018-09-11T10:56:50.713Z,34
2018-09-11T10:57:56.018Z,34
2018-09-11T10:59:00.933Z,34
2018-09-11T11:00:06.044Z,34
2018-09-11T11:01:11.262Z,34
2018-09-11T11:02:16.139Z,34
2018-09-11T11:03:21.292Z,34
2018-09-11T11:04:27.296Z,34
2018-09-11T11:05:32.788Z,34
2018-09-11T11:06:38.672Z,34
2018-09-11T11:07:44.155Z,34
2018-09-11T11:08:49.605Z,34
2018-09-11T11:09:54.717Z,34
2018-09-11T11:10:59.635Z,34
2018-09-11T11:12:04.787Z,34
2018-09-11T11:13:10.319Z,34
2018-09-11T11:14:15.535Z,34
2018-09-11T11:15:20.689Z,34
2018-09-11T11:16:25.848Z,34
2018-09-11T11:17:31.406Z,34
2018-09-11T11:18:36.944Z,34
2018-09-11T11:19:42.090Z,34
2018-09-11T11:20:47.589Z,34
2018-09-11T11:21:52.753Z,34
2018-09-11T11:22:57.340Z,34
2018-09-11T11:24:02.557Z,34
2018-09-11T11:25:08.036Z,34
2018-09-11T11:26:12.637Z,34
2018-09-11T11:27:18.102Z,34
2018-09-11T11:28:23.308Z,34
2018-09-11T11:29:28.759Z,34
2018-09-11T11:30:34.167Z,34
2018-09-11T11:31:39.308Z,34
2018-09-11T11:32:44.223Z,34
2018-09-11T11:33:49.929Z,34
2018-09-11T11:34:55.084Z,34
2018-09-11T11:36:00.688Z,34
2018-09-11T11:37:06.938Z,34
2018-09-11T11:38:12.878Z,34
2018-09-11T11:39:17.730Z,34
2018-09-11T11:40:23.462Z,34
2018-09-11T11:41:28.905Z,34
2018-09-11T11:42:33.468Z,34
2018-09-11T11:43:38.686Z,34
2018-09-11T11:44:43.928Z,34
2018-09-11T11:45:49.320Z,34
2018-09-11T11:46:54.489Z,34
2018-09-11T11:47:59.064Z,34
2018-09-11T11:49:04.227Z,34
2018-09-11T11:50:09.410Z,34
2018-09-11T11:51:14.286Z,34
2018-09-11T11:52:20.001Z,34
2018-09-11T11:53:25.512Z,34
2018-09-11T11:54:31.270Z,34
2018-09-11T11:55:36.455Z,34
2018-09-11T11:56:41.021Z,34
2018-09-11T11:57:46.528Z,34
2018-09-11T11:58:51.993Z,34
2018-09-11T11:59:57.469Z,34
2018-09-11T12:01:02.735Z,34
2018-09-11T12:02:07.635Z,34
2018-09-11T12:03:12.833Z,34
2018-09-11T12:04:18.528Z,34
2018-09-11T12:05:23.751Z,34
2018-09-11T12:06:29.804Z,34
2018-09-11T12:07:34.910Z,34
2018-09-11T12:08:39.897Z,34
2018-09-11T12:09:44.834Z,34
2018-09-11T12:10:50.399Z,34
2018-09-11T12:11:55.899Z,34
2018-09-11T12:13:01.318Z,34
2018-09-11T12:14:06.502Z,33
2018-09-11T12:15:11.932Z,34
2018-09-11T12:16:17.233Z,34
2018-09-11T12:17:22.291Z,34
2018-09-11T12:18:28.610Z,33
2018-09-11T12:19:33.830Z,34
2018-09-11T12:20:39.286Z,34
2018-09-11T12:21:45.600Z,34
2018-09-11T12:22:50.452Z,33
2018-09-11T12:23:55.600Z,33
2018-09-11T12:25:01.234Z,34
2018-09-11T12:26:06.158Z,34
2018-09-11T12:27:11.380Z,34
2018-09-11T12:28:17.039Z,34
2018-09-11T12:29:22.700Z,33
2018-09-11T12:30:28.094Z,34
2018-09-11T12:31:33.691Z,33
2018-09-11T12:32:39.138Z,33
2018-09-11T12:33:44.406Z,33
2018-09-11T12:34:49.581Z,33
2018-09-11T12:35:55.014Z,33
2018-09-11T12:37:00.190Z,33
2018-09-11T12:38:05.072Z,33
2018-09-11T12:39:09.660Z,33
2018-09-11T12:40:15.204Z,33
2018-09-11T12:41:20.335Z,33
2018-09-11T12:43:45.672Z,33
2018-09-11T12:44:51.167Z,33
2018-09-11T12:45:57.011Z,33
2018-09-11T12:47:04.409Z,33
2018-09-11T12:48:11.050Z,33
2018-09-11T12:49:19.551Z,33
2018-09-11T12:50:24.701Z,33
2018-09-11T12:51:30.575Z,33
2018-09-11T12:52:36.179Z,33
2018-09-11T12:53:42.030Z,33
2018-09-11T12:54:47.464Z,33
2018-09-11T12:55:52.645Z,33
2018-09-11T12:56:57.864Z,33
2018-09-11T12:58:03.445Z,33
2018-09-11T12:59:08.114Z,33
2018-09-11T13:00:13.279Z,33
2018-09-11T13:01:18.734Z,33
2018-09-11T13:02:24.314Z,33
2018-09-11T13:03:30.404Z,33
2018-09-11T13:04:35.520Z,33
2018-09-11T13:05:40.977Z,33
2018-09-11T13:06:46.443Z,33
2018-09-11T13:07:51.017Z,33
2018-09-11T13:08:56.466Z,33
2018-09-11T13:10:01.897Z,33
2018-09-11T13:11:06.240Z,33
2018-09-11T13:12:11.701Z,33
2018-09-11T13:13:17.213Z,33
2018-09-11T13:14:22.365Z,33
2018-09-11T13:15:27.984Z,33
2018-09-11T13:16:33.154Z,33
2018-09-11T13:17:37.756Z,33
2018-09-11T13:18:43.432Z,33
2018-09-11T13:19:48.877Z,33
2018-09-11T13:20:54.381Z,33
2018-09-11T13:22:00.048Z,33
2018-09-11T13:23:04.945Z,33
2018-09-11T13:24:09.805Z,33
2018-09-11T13:25:15.718Z,33
2018-09-11T13:26:20.959Z,33
2018-09-11T13:27:26.958Z,33
2018-09-11T13:28:32.394Z,33
2018-09-11T13:29:37.316Z,33
2018-09-11T13:30:43.100Z,33
2018-09-11T13:31:48.252Z,33
2018-09-11T13:32:52.826Z,33
2018-09-11T13:33:58.288Z,33
2018-09-11T13:35:02.988Z,33
2018-09-11T13:36:07.703Z,33
2018-09-11T13:37:13.590Z,32
2018-09-11T13:38:18.728Z,33
2018-09-11T13:39:23.648Z,33
2018-09-11T13:40:29.326Z,33
2018-09-11T13:41:34.184Z,33
2018-09-11T13:42:39.594Z,32
2018-09-11T13:43:43.959Z,32
2018-09-11T13:44:48.833Z,32
2018-09-11T13:45:54.323Z,32
2018-09-11T13:46:59.349Z,32
2018-09-11T13:48:05.017Z,32
2018-09-11T13:49:10.731Z,33
2018-09-11T13:50:15.939Z,32
2018-09-11T13:51:21.368Z,32
2018-09-11T13:52:26.870Z,32
2018-09-11T13:53:32.039Z,32
2018-09-11T13:54:37.527Z,32
2018-09-11T13:55:42.802Z,32
2018-09-11T13:56:48.037Z,32
2018-09-11T13:57:53.803Z,32
2018-09-11T13:58:58.973Z,32
2018-09-11T14:00:04.455Z,32
2018-09-11T14:01:09.723Z,32
2018-09-11T14:02:14.341Z,32
2018-09-11T14:03:19.548Z,32
2018-09-11T14:04:25.130Z,32
2018-09-11T14:05:29.642Z,32
2018-09-11T14:06:35.336Z,32
2018-09-11T14:07:40.756Z,32
2018-09-11T14:08:45.908Z,32
2018-09-11T14:09:50.781Z,32
2018-09-11T14:10:55.380Z,32
2018-09-11T14:12:00.254Z,32
2018-09-11T14:13:05.567Z,32
2018-09-11T14:14:11.122Z,32
2018-09-11T14:15:16.276Z,32
2018-09-11T14:16:21.543Z,32
2018-09-11T14:17:26.748Z,32
2018-09-11T14:18:31.862Z,32
2018-09-11T14:19:37.289Z,32
2018-09-11T14:20:42.469Z,32
2018-09-11T14:21:47.879Z,32
2018-09-11T14:22:53.309Z,32
2018-09-11T14:23:58.853Z,32
2018-09-11T14:25:03.845Z,32
2018-09-11T14:26:08.723Z,32
2018-09-11T14:27:14.222Z,32
2018-09-11T14:28:19.186Z,32
2018-09-11T14:29:24.400Z,32
2018-09-11T14:30:29.842Z,32
2018-09-11T14:31:35.042Z,32
2018-09-11T14:32:40.543Z,32
2018-09-11T14:33:45.987Z,32
2018-09-11T14:34:51.422Z,32
2018-09-11T14:35:56.928Z,32
2018-09-11T14:37:02.072Z,32
2018-09-11T14:38:07.244Z,32
2018-09-11T14:39:12.706Z,32
2018-09-11T14:40:18.212Z,32
2018-09-11T14:41:23.362Z,32
2018-09-11T14:42:29.293Z,32
2018-09-11T14:43:34.790Z,33
2018-09-11T14:44:39.975Z,33
2018-09-11T14:45:45.703Z,34
2018-09-11T14:46:51.136Z,34
2018-09-11T14:47:56.308Z,33
2018-09-11T14:49:02.393Z,33
2018-09-11T14:50:06.810Z,33
2018-09-11T14:51:11.683Z,33
2018-09-11T14:52:17.392Z,33
2018-09-11T14:53:22.915Z,33
2018-09-11T14:54:43.225Z,33
2018-09-11T14:55:48.498Z,33
2018-09-11T14:56:53.740Z,33
2018-09-11T14:57:58.750Z,33
2018-09-11T14:59:03.584Z,33
2018-09-11T15:00:08.797Z,33
2018-09-11T15:01:14.639Z,33
2018-09-11T15:02:19.816Z,32
2018-09-11T15:03:25.043Z,32
2018-09-11T15:04:31.777Z,32
2018-09-11T15:05:37.255Z,32
2018-09-11T15:06:42.956Z,32
2018-09-11T15:07:48.178Z,32
2018-09-11T15:08:53.867Z,32
2018-09-11T15:09:59.142Z,32
2018-09-11T15:11:04.633Z,32
2018-09-11T15:12:09.207Z,32
2018-09-11T15:13:14.175Z,32
2018-09-11T15:14:19.324Z,32
2018-09-11T15:15:24.490Z,32
2018-09-11T15:16:30.170Z,32
2018-09-11T15:17:35.365Z,32
2018-09-11T15:18:40.496Z,32
2018-09-11T15:19:45.721Z,32
2018-09-11T15:20:50.942Z,32
2018-09-11T15:21:56.535Z,32
2018-09-11T15:23:01.783Z,32
2018-09-11T15:24:06.653Z,32
2018-09-11T15:25:12.371Z,31
2018-09-11T15:26:17.727Z,31
2018-09-11T15:27:22.683Z,31
2018-09-11T15:28:42.907Z,31
2018-09-11T15:29:47.607Z,31
2018-09-11T15:30:53.113Z,31
2018-09-11T15:31:58.257Z,31
2018-09-11T15:33:03.480Z,31
2018-09-11T15:34:08.933Z,31
2018-09-11T15:35:14.423Z,31
2018-09-11T15:36:19.626Z,31
2018-09-11T15:37:24.739Z,31
2018-09-11T15:38:30.170Z,31
2018-09-11T15:39:36.105Z,31
2018-09-11T15:40:40.987Z,31